Time;durP1;ratioP1;P1;durP2;ratioP2;P2;SDS_P1;SDS_P2;PMS_P1;PMS_P2;Temp;Humidity;BMP_temperature;BMP_pressure;BME280_temperature;BME280_humidity;BME280_pressure;Samples;Min_cycle;Max_cycle;Signal;HPM_P1;HPM_P2
2023/04/02 00:02:44;;;;;;;8.65;6.10;;;4.30;1.00;;;;;;4891734;29;21752;-85
2023/04/02 00:05:48;;;;;;;6.32;5.70;;;4.30;1.00;;;;;;4875730;29;20239;-85
2023/04/02 00:08:32;;;;;;;7.05;6.18;;;4.30;1.00;;;;;;4882629;29;20247;-87
2023/04/02 00:11:02;;;;;;;8.20;6.50;;;4.30;1.00;;;;;;4888797;29;20247;-86
2023/04/02 00:13:34;;;;;;;8.82;6.70;;;4.30;1.00;;;;;;4885956;29;20228;-88
2023/04/02 00:16:03;;;;;;;7.28;5.40;;;4.30;1.00;;;;;;4888145;29;20243;-84
2023/04/02 00:18:33;;;;;;;6.80;4.82;;;4.30;1.00;;;;;;4885842;29;20244;-86
2023/04/02 00:21:10;;;;;;;8.80;5.30;;;4.30;1.00;;;;;;4885561;29;20267;-85
2023/04/02 00:23:40;;;;;;;7.30;5.03;;;4.30;1.00;;;;;;4885149;29;20268;-88
2023/04/02 00:26:23;;;;;;;6.63;4.90;;;4.30;1.00;;;;;;4885965;29;20255;-88
2023/04/02 00:28:54;;;;;;;7.80;4.50;;;4.30;1.00;;;;;;4883093;29;20315;-86
2023/04/02 00:31:21;;;;;;;8.25;4.38;;;4.20;1.00;;;;;;4893922;29;20250;-86
2023/04/02 00:33:49;;;;;;;5.97;4.07;;;4.20;1.00;;;;;;4884909;29;20326;-85
2023/04/02 00:36:19;;;;;;;9.57;4.85;;;4.20;1.00;;;;;;4882522;29;20243;-84
2023/04/02 00:38:47;;;;;;;6.32;4.30;;;4.20;1.00;;;;;;4886295;29;20323;-86
2023/04/02 00:41:17;;;;;;;8.43;4.50;;;4.20;1.00;;;;;;4883843;29;20242;-85
2023/04/02 00:43:49;;;;;;;6.03;4.38;;;4.20;1.00;;;;;;4883609;29;20223;-88
2023/04/02 00:46:26;;;;;;;6.45;5.43;;;4.10;1.00;;;;;;4883044;29;20327;-84
2023/04/02 00:48:59;;;;;;;6.05;4.15;;;4.10;1.00;;;;;;4884817;29;20793;-87
2023/04/02 00:51:32;;;;;;;6.22;4.00;;;4.20;1.00;;;;;;4883345;29;20289;-85
2023/04/02 00:54:05;;;;;;;8.77;5.22;;;4.20;1.00;;;;;;4889039;29;20224;-84
2023/04/02 00:56:37;;;;;;;5.88;4.20;;;4.20;1.00;;;;;;4886155;29;20243;-85
2023/04/02 00:59:12;;;;;;;8.25;4.20;;;4.20;1.00;;;;;;4888213;29;20297;-86
2023/04/02 01:30:51;;;;;;;6.63;3.40;;;4.10;1.00;;;;;;4899483;29;20226;-84
2023/04/02 03:04:57;;;;;;;7.57;3.85;;;4.30;1.00;;;;;;4812974;29;20245;-83
2023/04/02 03:07:55;;;;;;;5.32;2.97;;;4.30;1.00;;;;;;4807802;29;20244;-84
2023/04/02 03:10:40;;;;;;;6.53;3.50;;;4.30;1.00;;;;;;4843452;29;20727;-83
2023/04/02 03:25:58;;;;;;;4.78;2.83;;;4.40;1.00;;;;;;4876433;29;20342;-82
2023/04/02 03:29:00;;;;;;;3.58;2.78;;;4.40;1.00;;;;;;4905573;29;20337;-83
2023/04/02 04:06:58;;;;;;;6.72;2.92;;;4.30;1.00;;;;;;5699136;23;20234;-83
2023/04/02 04:09:29;;;;;;;5.68;2.45;;;4.30;1.00;;;;;;4897750;29;20234;-83
2023/04/02 04:12:07;;;;;;;7.00;3.40;;;4.30;1.00;;;;;;4899038;29;20302;-82
2023/04/02 04:14:37;;;;;;;4.90;2.50;;;4.30;1.00;;;;;;4902127;29;20294;-83
2023/04/02 04:17:14;;;;;;;5.38;2.70;;;4.30;1.00;;;;;;4900733;29;20820;-82
2023/04/02 04:19:46;;;;;;;4.60;2.70;;;4.30;1.00;;;;;;4908255;29;20242;-83
2023/04/02 04:22:19;;;;;;;4.82;2.40;;;4.20;1.00;;;;;;4904888;29;20333;-83
2023/04/02 04:24:47;;;;;;;5.10;3.42;;;4.30;1.00;;;;;;4906228;29;20249;-84
2023/04/02 04:27:23;;;;;;;4.75;2.50;;;4.20;1.00;;;;;;4901694;29;20246;-80
2023/04/02 04:29:57;;;;;;;4.72;2.58;;;4.20;1.00;;;;;;4905305;29;20242;-81
2023/04/02 04:32:31;;;;;;;4.78;2.40;;;4.30;1.00;;;;;;4907993;29;20246;-80
2023/04/02 04:35:02;;;;;;;4.85;2.40;;;4.30;1.00;;;;;;4903909;29;20254;-81
2023/04/02 04:37:34;;;;;;;4.03;2.08;;;4.40;1.00;;;;;;4901411;29;20242;-80
2023/04/02 04:40:10;;;;;;;4.88;2.40;;;4.40;1.00;;;;;;4903001;29;20357;-79
2023/04/02 04:42:41;;;;;;;3.47;2.50;;;4.50;1.00;;;;;;4901968;29;20241;-79
2023/04/02 04:45:20;;;;;;;4.55;2.60;;;4.50;1.00;;;;;;4903258;29;20322;-81
2023/04/02 04:47:54;;;;;;;6.65;3.10;;;4.60;1.00;;;;;;4903059;29;20241;-80
2023/04/02 04:50:28;;;;;;;5.57;2.70;;;4.70;1.00;;;;;;4907019;29;20274;-79
2023/04/02 04:52:57;;;;;;;4.13;2.20;;;4.70;1.00;;;;;;4913989;29;20246;-79
2023/04/02 04:55:29;;;;;;;5.72;2.72;;;4.70;1.00;;;;;;4906810;29;20328;-80
2023/04/02 04:58:01;;;;;;;8.82;2.90;;;4.70;1.00;;;;;;4904469;29;20250;-80
2023/04/02 05:00:35;;;;;;;5.65;3.15;;;4.70;1.00;;;;;;4905461;29;20326;-80
2023/04/02 05:03:09;;;;;;;4.88;2.60;;;4.80;1.00;;;;;;4905897;29;20241;-81
2023/04/02 05:05:40;;;;;;;3.90;2.10;;;4.70;1.00;;;;;;4907764;29;20249;-80
2023/04/02 05:08:14;;;;;;;4.28;2.72;;;4.70;1.00;;;;;;4908141;29;20253;-80
2023/04/02 05:10:46;;;;;;;7.65;2.40;;;4.70;1.00;;;;;;4906788;29;21117;-81
2023/04/02 05:13:18;;;;;;;4.57;3.10;;;4.70;1.00;;;;;;4903561;29;20330;-81
2023/04/02 05:15:52;;;;;;;6.55;2.45;;;4.80;1.00;;;;;;4901172;29;20277;-80
2023/04/02 05:18:26;;;;;;;5.25;2.50;;;4.80;1.00;;;;;;4903791;29;20242;-80
2023/04/02 05:20:59;;;;;;;6.00;2.55;;;4.80;1.00;;;;;;4900550;29;20259;-80
2023/04/02 05:23:30;;;;;;;4.50;2.70;;;5.00;1.00;;;;;;4898987;29;20249;-80
2023/04/02 05:26:04;;;;;;;4.13;2.80;;;5.10;1.00;;;;;;4904203;29;20245;-79
2023/04/02 05:28:38;;;;;;;6.15;2.85;;;5.10;1.00;;;;;;4904665;29;20249;-81
2023/04/02 05:31:12;;;;;;;4.15;2.97;;;5.10;1.00;;;;;;4903155;29;20329;-80
2023/04/02 05:33:44;;;;;;;6.78;2.80;;;5.10;1.00;;;;;;4904559;29;20239;-80
2023/04/02 05:36:18;;;;;;;4.90;2.72;;;5.10;1.00;;;;;;4905256;29;21422;-80
2023/04/02 05:38:48;;;;;;;6.38;2.80;;;5.00;1.00;;;;;;4900433;29;20242;-80
2023/04/02 05:41:25;;;;;;;3.45;2.17;;;4.90;1.00;;;;;;4900884;29;20711;-80
2023/04/02 05:44:02;;;;;;;8.85;3.13;;;4.90;1.00;;;;;;4902212;29;20784;-81
2023/04/02 05:46:34;;;;;;;4.00;2.20;;;4.80;1.00;;;;;;4903517;29;20355;-81
2023/04/02 05:49:04;;;;;;;5.55;2.10;;;4.90;1.00;;;;;;4906578;29;20269;-81
2023/04/02 05:51:39;;;;;;;3.97;2.10;;;4.90;1.00;;;;;;4903933;29;20250;-81
2023/04/02 05:54:16;;;;;;;5.80;2.40;;;4.90;1.00;;;;;;4900489;29;20246;-81
2023/04/02 05:56:48;;;;;;;4.50;2.28;;;5.00;1.00;;;;;;4900113;29;20978;-81
2023/04/02 05:59:19;;;;;;;4.95;2.38;;;5.10;1.00;;;;;;4896061;29;20371;-80
2023/04/02 06:01:51;;;;;;;3.50;1.98;;;5.20;1.00;;;;;;4902999;29;20247;-81
2023/04/02 06:04:24;;;;;;;4.95;2.30;;;5.20;1.00;;;;;;4899034;29;20298;-80
2023/04/02 06:06:58;;;;;;;5.80;2.50;;;5.30;1.00;;;;;;4901684;29;20252;-80
2023/04/02 06:09:36;;;;;;;4.93;1.90;;;5.40;1.00;;;;;;4904860;29;20237;-80
2023/04/02 06:12:14;;;;;;;6.20;2.28;;;5.40;1.00;;;;;;4897872;29;20247;-79
2023/04/02 06:14:41;;;;;;;5.28;2.15;;;5.40;1.00;;;;;;4898869;29;20245;-80
2023/04/02 06:17:11;;;;;;;5.47;1.77;;;5.30;1.00;;;;;;4899881;29;20801;-80
2023/04/02 06:19:39;;;;;;;4.35;2.08;;;5.20;1.00;;;;;;4904507;29;20299;-80
2023/04/02 06:22:16;;;;;;;4.15;1.52;;;5.10;1.00;;;;;;4900289;29;20247;-80
2023/04/02 06:24:46;;;;;;;3.63;2.00;;;5.20;1.00;;;;;;4902084;29;20244;-81
2023/04/02 06:27:19;;;;;;;7.18;2.10;;;5.30;1.00;;;;;;4900910;29;20274;-80
2023/04/02 06:29:50;;;;;;;4.43;1.60;;;5.40;1.00;;;;;;4899974;29;20249;-82
2023/04/02 06:32:19;;;;;;;4.78;2.60;;;5.60;1.00;;;;;;4908074;29;20731;-81
2023/04/02 06:34:47;;;;;;;4.15;2.03;;;5.80;1.00;;;;;;4905658;29;20240;-81
2023/04/02 06:37:19;;;;;;;5.10;2.05;;;5.90;1.00;;;;;;4906792;29;20251;-81
2023/04/02 06:39:48;;;;;;;5.70;2.50;;;6.00;1.00;;;;;;4904529;29;20341;-82
2023/04/02 06:42:20;;;;;;;3.88;2.10;;;5.90;1.00;;;;;;4908567;29;20337;-80
2023/04/02 06:44:47;;;;;;;3.25;1.63;;;5.90;1.00;;;;;;4908731;29;20253;-81
2023/04/02 06:47:24;;;;;;;5.07;2.25;;;5.80;1.00;;;;;;4903185;29;20247;-82
2023/04/02 06:49:57;;;;;;;5.00;2.05;;;5.80;1.00;;;;;;4907427;29;20251;-79
2023/04/02 06:52:28;;;;;;;6.13;3.05;;;6.00;1.00;;;;;;4907804;29;20256;-80
2023/04/02 06:54:57;;;;;;;7.03;2.60;;;6.00;1.00;;;;;;4903023;29;20240;-80
2023/04/02 06:57:24;;;;;;;4.03;2.15;;;5.90;1.00;;;;;;4901554;29;20252;-81
2023/04/02 06:59:52;;;;;;;4.10;2.10;;;6.20;1.00;;;;;;4903599;29;20245;-79
2023/04/02 07:02:29;;;;;;;3.58;1.83;;;6.40;1.00;;;;;;4901315;29;20267;-81
2023/04/02 07:05:04;;;;;;;4.15;1.90;;;6.40;1.00;;;;;;4903647;29;20246;-81
2023/04/02 07:07:31;;;;;;;3.55;1.77;;;6.60;1.00;;;;;;4901676;29;20249;-79
2023/04/02 07:10:00;;;;;;;4.85;1.67;;;6.70;1.00;;;;;;4904930;28;20247;-80
2023/04/02 07:12:27;;;;;;;5.80;2.17;;;6.90;1.00;;;;;;4905237;29;20253;-80
2023/04/02 07:14:55;;;;;;;6.55;2.08;;;7.00;1.00;;;;;;4907220;29;20245;-79
2023/04/02 07:17:22;;;;;;;4.17;2.20;;;7.00;1.00;;;;;;4906948;29;21078;-79
2023/04/02 07:19:49;;;;;;;3.88;1.70;;;7.00;1.00;;;;;;4905508;29;21226;-80
2023/04/02 07:22:17;;;;;;;6.20;2.20;;;7.10;1.00;;;;;;4905019;29;20252;-79
2023/04/02 07:24:44;;;;;;;4.00;1.47;;;7.20;1.00;;;;;;4909455;28;20599;-78
2023/04/02 07:27:14;;;;;;;7.80;2.00;;;7.20;1.00;;;;;;4908516;29;20485;-80
2023/04/02 07:29:42;;;;;;;3.00;1.60;;;7.30;1.00;;;;;;4908323;29;20525;-81
2023/04/02 07:32:10;;;;;;;7.40;2.00;;;7.30;1.00;;;;;;4908293;29;20234;-80
2023/04/02 07:34:38;;;;;;;6.33;1.90;;;7.30;1.00;;;;;;4912390;29;20665;-80
2023/04/02 07:37:05;;;;;;;3.37;1.90;;;7.70;1.00;;;;;;4905903;29;20535;-80
2023/04/02 07:39:32;;;;;;;5.00;2.00;;;8.00;1.00;;;;;;4900804;29;20541;-79
2023/04/02 07:42:01;;;;;;;4.70;2.10;;;8.20;1.00;;;;;;4902764;29;20467;-79
2023/04/02 07:44:30;;;;;;;3.30;1.90;;;8.50;1.00;;;;;;4898102;29;20455;-79
2023/04/02 07:46:57;;;;;;;3.90;1.63;;;8.60;1.00;;;;;;4902637;29;20502;-79
2023/04/02 07:49:27;;;;;;;4.80;1.80;;;8.60;1.00;;;;;;4901490;29;20468;-79
2023/04/02 07:51:54;;;;;;;4.40;1.80;;;8.60;1.00;;;;;;4898890;29;20549;-79
2023/04/02 07:54:22;;;;;;;3.77;2.10;;;8.50;1.00;;;;;;4897981;29;21390;-79
2023/04/02 07:56:49;;;;;;;4.30;2.60;;;8.30;1.00;;;;;;4906423;29;20506;-79
2023/04/02 07:59:16;;;;;;;5.20;2.37;;;8.20;1.00;;;;;;4908197;28;20963;-79
2023/04/02 08:01:45;;;;;;;4.73;1.40;;;8.20;1.00;;;;;;4905233;29;20615;-79
2023/04/02 08:04:19;;;;;;;2.77;1.70;;;8.10;1.00;;;;;;4905444;29;20464;-78
2023/04/02 08:06:47;;;;;;;3.60;1.70;;;8.00;1.00;;;;;;4891443;29;20645;-78
2023/04/02 08:09:14;;;;;;;4.95;2.00;;;8.00;1.00;;;;;;4901666;29;20465;-79
2023/04/02 08:11:41;;;;;;;4.45;2.00;;;8.00;1.00;;;;;;4897904;29;20325;-79
2023/04/02 08:14:09;;;;;;;3.97;2.73;;;8.10;1.00;;;;;;4904420;29;20445;-79
2023/04/02 08:16:50;;;;;;;4.17;2.33;;;7.90;1.00;;;;;;4905595;29;20474;-79
2023/04/02 08:19:17;;;;;;;4.55;2.20;;;7.80;1.00;;;;;;4900564;29;20475;-80
2023/04/02 08:21:45;;;;;;;3.27;1.90;;;7.80;1.00;;;;;;4904038;29;20254;-79
2023/04/02 08:24:12;;;;;;;4.67;2.30;;;8.00;1.00;;;;;;4903071;29;20493;-79
2023/04/02 08:26:39;;;;;;;6.20;3.17;;;8.20;1.00;;;;;;4901682;29;20485;-79
2023/04/02 08:29:06;;;;;;;4.00;1.97;;;8.40;1.00;;;;;;4905974;29;20582;-79
2023/04/02 08:31:33;;;;;;;5.60;2.10;;;8.70;1.00;;;;;;4906340;29;20472;-79
2023/04/02 08:34:02;;;;;;;3.03;2.00;;;8.80;1.00;;;;;;4903712;29;21223;-79
2023/04/02 08:36:33;;;;;;;3.10;1.60;;;8.80;1.00;;;;;;4909037;28;20475;-79
2023/04/02 08:39:01;;;;;;;2.93;1.70;;;9.00;1.00;;;;;;4903059;29;20544;-79
2023/04/02 08:41:29;;;;;;;3.70;1.87;;;8.90;1.00;;;;;;4909070;29;20474;-79
2023/04/02 08:44:17;;;;;;;2.00;1.57;;;8.90;1.00;;;;;;4906748;29;20427;-78
2023/04/02 08:46:49;;;;;;;5.60;2.17;;;8.90;1.00;;;;;;4901564;29;20482;-78
2023/04/02 08:49:23;;;;;;;4.17;1.77;;;8.90;1.00;;;;;;4905310;29;20459;-78
2023/04/02 08:51:51;;;;;;;4.37;2.20;;;8.70;1.00;;;;;;4905584;29;20462;-79
2023/04/02 08:54:26;;;;;;;3.20;2.30;;;8.70;1.00;;;;;;4907379;29;20474;-79
2023/04/02 08:56:56;;;;;;;2.30;1.80;;;8.60;1.00;;;;;;4905771;29;20480;-79
2023/04/02 08:59:32;;;;;;;5.80;3.13;;;8.70;1.00;;;;;;4906472;29;20455;-78
2023/04/02 09:02:10;;;;;;;3.60;2.73;;;8.70;1.00;;;;;;4906038;29;21436;-79
2023/04/02 09:04:40;;;;;;;3.37;2.40;;;8.80;1.00;;;;;;4906301;29;20451;-78
2023/04/02 09:07:13;;;;;;;4.90;2.27;;;8.60;1.00;;;;;;4903458;29;20531;-79
2023/04/02 09:09:40;;;;;;;6.30;2.70;;;8.70;1.00;;;;;;4909178;29;20478;-78
2023/04/02 09:12:17;;;;;;;4.40;2.57;;;8.60;1.00;;;;;;4904355;29;20474;-78
2023/04/02 09:14:54;;;;;;;2.30;1.50;;;8.60;1.00;;;;;;4902000;29;21239;-78
2023/04/02 09:17:23;;;;;;;3.87;1.90;;;8.50;1.00;;;;;;4903812;29;20935;-79
2023/04/02 09:19:56;;;;;;;3.40;1.83;;;8.80;1.00;;;;;;4899714;29;21026;-79
2023/04/02 09:22:25;;;;;;;4.87;2.10;;;9.20;1.00;;;;;;4902661;29;20675;-79
2023/04/02 09:24:53;;;;;;;3.73;1.97;;;9.30;1.00;;;;;;4906456;29;20559;-79
2023/04/02 09:27:21;;;;;;;3.00;1.90;;;9.50;1.00;;;;;;4903059;29;20538;-78
2023/04/02 09:29:51;;;;;;;5.80;1.87;;;9.50;1.00;;;;;;4902534;29;20491;-79
2023/04/02 09:32:48;;;;;;;3.50;1.73;;;9.30;1.00;;;;;;4905626;29;20467;-78
2023/04/02 09:35:18;;;;;;;6.83;2.20;;;9.20;1.00;;;;;;4904047;29;21973;-78
2023/04/02 09:37:46;;;;;;;3.93;1.97;;;9.20;1.00;;;;;;4901273;29;20525;-79
2023/04/02 09:40:25;;;;;;;2.60;1.57;;;9.40;1.00;;;;;;4909120;29;20505;-79
2023/04/02 09:43:10;;;;;;;4.00;1.90;;;9.70;1.00;;;;;;4903430;29;20605;-79
2023/04/02 09:45:37;;;;;;;3.70;2.03;;;9.70;1.00;;;;;;4905759;29;20456;-79
2023/04/02 09:48:22;;;;;;;3.97;2.20;;;9.60;1.00;;;;;;4906268;29;20606;-79
2023/04/02 09:50:50;;;;;;;3.57;1.50;;;9.50;1.00;;;;;;4902638;29;20558;-79
2023/04/02 09:53:29;;;;;;;3.13;1.70;;;9.50;1.00;;;;;;4901845;29;20546;-79
2023/04/02 09:56:14;;;;;;;3.73;1.73;;;10.40;1.00;;;;;;4901647;29;20578;-79
2023/04/02 09:58:42;;;;;;;3.03;2.20;;;11.00;1.00;;;;;;4898411;29;20607;-79
2023/04/02 10:01:29;;;;;;;5.23;3.30;;;11.50;1.00;;;;;;4900242;29;20464;-80
2023/04/02 10:03:58;;;;;;;3.60;2.40;;;11.80;1.00;;;;;;4903968;29;20520;-80
2023/04/02 10:06:28;;;;;;;2.50;2.03;;;12.00;1.00;;;;;;4897258;29;20515;-80
2023/04/02 10:08:55;;;;;;;4.43;2.40;;;12.00;1.00;;;;;;4899760;29;20578;-79
2023/04/02 10:11:26;;;;;;;3.63;2.13;;;12.20;1.00;;;;;;4902547;29;20458;-78
2023/04/02 10:13:56;;;;;;;2.70;2.00;;;12.30;1.00;;;;;;4911539;29;20505;-79
2023/04/02 10:16:31;;;;;;;3.27;1.90;;;12.00;1.00;;;;;;4905767;29;20455;-79
2023/04/02 10:19:00;;;;;;;3.90;2.30;;;11.70;1.00;;;;;;4905700;29;20497;-78
2023/04/02 10:21:36;;;;;;;6.40;1.90;;;11.60;1.00;;;;;;4907517;29;20547;-78
2023/04/02 10:24:10;;;;;;;3.40;1.87;;;11.60;1.00;;;;;;4907796;28;20470;-79
2023/04/02 10:26:46;;;;;;;5.00;2.03;;;11.40;1.00;;;;;;4909101;29;20476;-79
2023/04/02 10:29:31;;;;;;;3.10;2.50;;;11.30;1.00;;;;;;4904311;29;20486;-79
2023/04/02 10:32:04;;;;;;;4.77;2.37;;;11.40;1.00;;;;;;4904934;29;20487;-79
2023/04/02 10:34:38;;;;;;;3.87;1.90;;;11.40;1.00;;;;;;4908408;29;20462;-79
2023/04/02 10:37:32;;;;;;;3.20;1.97;;;11.30;1.00;;;;;;4907577;29;21079;-80
2023/04/02 10:40:07;;;;;;;2.30;1.47;;;10.90;1.00;;;;;;4905363;29;20479;-78
2023/04/02 10:42:40;;;;;;;3.30;1.50;;;10.70;1.00;;;;;;4908136;29;20472;-78
2023/04/02 10:45:18;;;;;;;3.27;2.10;;;10.60;1.00;;;;;;4908411;29;20454;-79
2023/04/02 10:47:52;;;;;;;5.20;2.30;;;10.80;1.00;;;;;;4908223;29;20498;-79
2023/04/02 10:50:30;;;;;;;3.47;2.13;;;11.00;1.00;;;;;;4903701;29;20470;-79
2023/04/02 10:53:06;;;;;;;5.67;2.80;;;10.80;1.00;;;;;;4906610;29;20486;-79
2023/04/02 10:55:39;;;;;;;2.67;1.80;;;10.50;1.00;;;;;;4901364;29;20458;-79
2023/04/02 10:58:25;;;;;;;4.83;1.53;;;10.50;1.00;;;;;;4905654;29;21105;-79
2023/04/02 11:00:56;;;;;;;5.67;1.90;;;10.30;1.00;;;;;;4908780;29;20490;-79
2023/04/02 11:03:31;;;;;;;3.97;1.87;;;10.50;1.00;;;;;;4893908;29;20483;-78
2023/04/02 11:06:01;;;;;;;5.87;2.70;;;10.50;1.00;;;;;;4896323;29;20485;-79
2023/04/02 11:08:39;;;;;;;3.63;2.27;;;10.70;1.00;;;;;;4905065;29;22200;-78
2023/04/02 11:11:12;;;;;;;3.50;2.20;;;10.80;1.00;;;;;;4897011;29;21378;-79
2023/04/02 11:13:51;;;;;;;5.47;2.50;;;10.80;1.00;;;;;;4904966;29;21281;-79
2023/04/02 11:16:19;;;;;;;4.47;1.93;;;10.80;1.00;;;;;;4906008;29;20546;-80
2023/04/02 11:19:24;;;;;;;4.40;2.40;;;10.70;1.00;;;;;;4904352;29;20509;-79
2023/04/02 11:21:55;;;;;;;4.17;2.10;;;10.70;1.00;;;;;;4901883;29;20483;-79
2023/04/02 11:24:38;;;;;;;3.70;2.33;;;10.50;1.00;;;;;;4907980;29;20458;-78
2023/04/02 11:27:14;;;;;;;3.30;1.80;;;10.40;1.00;;;;;;4904946;29;20483;-79
2023/04/02 11:29:43;;;;;;;3.40;2.30;;;10.40;1.00;;;;;;4911445;29;20979;-78
2023/04/02 11:32:29;;;;;;;3.53;3.00;;;10.30;1.00;;;;;;4908629;29;22528;-78
2023/04/02 11:35:35;;;;;;;3.90;2.30;;;10.20;1.00;;;;;;4902282;29;20510;-77
2023/04/02 11:38:23;;;;;;;8.50;2.53;;;10.10;1.00;;;;;;4907489;28;20467;-79
2023/04/02 11:40:53;;;;;;;6.20;2.43;;;10.30;1.00;;;;;;4909420;29;20467;-79
2023/04/02 11:43:52;;;;;;;4.80;2.50;;;10.40;1.00;;;;;;4905582;29;20501;-78
2023/04/02 11:46:47;;;;;;;4.20;2.27;;;10.30;1.00;;;;;;4902148;29;20514;-77
2023/04/02 11:49:34;;;;;;;4.63;2.20;;;10.40;1.00;;;;;;4903917;29;21388;-78
2023/04/02 11:52:03;;;;;;;2.93;2.50;;;10.00;1.00;;;;;;4905491;29;21248;-78
2023/04/02 11:54:34;;;;;;;5.70;2.87;;;11.50;1.00;;;;;;4901093;29;21219;-78
2023/04/02 11:57:13;;;;;;;4.30;2.27;;;13.00;1.00;;;;;;4912011;29;21288;-81
2023/04/02 11:59:50;;;;;;;5.60;2.43;;;13.40;1.00;;;;;;4902995;29;20489;-78
2023/04/02 12:02:23;;;;;;;4.13;2.20;;;13.10;1.00;;;;;;4906186;29;20551;-78
2023/04/02 12:05:17;;;;;;;6.20;2.50;;;12.90;1.00;;;;;;4904816;29;20474;-78
2023/04/02 12:08:12;;;;;;;5.60;2.50;;;13.10;1.00;;;;;;4906725;29;20880;-79
2023/04/02 12:11:00;;;;;;;6.97;2.70;;;13.60;1.00;;;;;;4906097;29;20464;-79
2023/04/02 12:13:49;;;;;;;5.87;3.47;;;13.80;1.00;;;;;;4898744;29;20488;-78
2023/04/02 12:16:17;;;;;;;4.53;2.50;;;13.50;1.00;;;;;;4898431;29;20482;-78
2023/04/02 12:18:46;;;;;;;4.90;1.93;;;13.20;1.00;;;;;;4898327;29;21309;-79
2023/04/02 12:21:16;;;;;;;4.77;2.53;;;12.60;1.00;;;;;;4901697;29;20535;-78
2023/04/02 12:23:46;;;;;;;3.17;2.27;;;12.00;1.00;;;;;;4902649;29;20972;-79
2023/04/02 12:26:35;;;;;;;3.93;2.13;;;11.60;1.00;;;;;;4904242;29;20564;-78
2023/04/02 12:29:23;;;;;;;2.70;2.20;;;11.50;1.00;;;;;;4904300;29;20574;-79
2023/04/02 12:31:50;;;;;;;5.47;2.80;;;11.70;1.00;;;;;;4902470;29;20965;-78
2023/04/02 12:34:19;;;;;;;4.10;2.20;;;12.00;1.00;;;;;;4904948;29;20463;-78
2023/04/02 12:36:54;;;;;;;4.37;2.70;;;12.30;1.00;;;;;;4902920;29;20935;-78
2023/04/02 12:39:22;;;;;;;2.20;1.40;;;13.10;1.00;;;;;;4906699;29;22940;-78
2023/04/02 12:41:49;;;;;;;6.57;3.00;;;14.30;1.00;;;;;;4898425;28;20481;-79
2023/04/02 12:44:20;;;;;;;2.50;1.80;;;14.40;1.00;;;;;;4902062;29;20547;-79
2023/04/02 12:46:49;;;;;;;2.90;2.13;;;15.20;1.00;;;;;;4897207;29;20570;-81
2023/04/02 12:49:31;;;;;;;3.27;2.43;;;16.30;1.00;;;;;;4898308;29;20467;-79
2023/04/02 12:51:59;;;;;;;2.90;1.53;;;16.50;1.00;;;;;;4892656;29;20472;-79
2023/04/02 12:54:34;;;;;;;4.07;2.20;;;15.80;1.00;;;;;;4897298;29;20921;-78
2023/04/02 12:57:22;;;;;;;2.80;1.43;;;15.00;1.00;;;;;;4896790;29;20531;-78
2023/04/02 12:59:52;;;;;;;4.83;2.30;;;14.80;1.00;;;;;;4902132;29;20823;-80
2023/04/02 13:02:28;;;;;;;2.80;1.80;;;14.30;1.00;;;;;;4904875;29;20468;-79
2023/04/02 13:04:59;;;;;;;4.10;1.73;;;14.30;1.00;;;;;;4896292;29;20427;-78
2023/04/02 13:07:29;;;;;;;3.00;1.70;;;15.90;1.00;;;;;;4900138;29;20491;-79
2023/04/02 13:09:59;;;;;;;2.37;1.20;;;17.80;1.00;;;;;;4907625;29;20470;-78
2023/04/02 13:12:31;;;;;;;2.73;1.90;;;20.20;1.00;;;;;;4908061;29;20471;-78
2023/04/02 13:15:02;;;;;;;1.97;1.40;;;21.90;1.00;;;;;;4902152;29;20579;-79
2023/04/02 13:17:41;;;;;;;5.60;2.70;;;21.50;1.00;;;;;;4899567;29;20531;-79
2023/04/02 13:20:31;;;;;;;6.40;2.43;;;20.30;1.00;;;;;;4899864;28;20466;-80
2023/04/02 13:22:59;;;;;;;4.63;1.80;;;20.80;1.00;;;;;;4900029;29;20470;-78
2023/04/02 13:25:30;;;;;;;4.37;2.10;;;22.70;1.00;;;;;;4895273;29;20568;-78
2023/04/02 13:27:58;;;;;;;3.97;2.07;;;24.90;1.00;;;;;;4901003;29;20607;-78
2023/04/02 13:30:27;;;;;;;3.57;1.53;;;26.00;1.00;;;;;;4900575;29;20465;-79
2023/04/02 13:32:55;;;;;;;2.83;1.50;;;24.20;1.00;;;;;;4901250;29;20562;-78
2023/04/02 13:35:23;;;;;;;4.10;1.57;;;22.00;1.00;;;;;;4892666;29;20462;-79
2023/04/02 13:37:50;;;;;;;3.37;1.73;;;20.00;1.00;;;;;;4901078;29;21514;-76
2023/04/02 13:40:19;;;;;;;3.00;1.63;;;18.50;1.00;;;;;;4910090;29;20470;-79
2023/04/02 13:42:46;;;;;;;4.47;1.40;;;16.90;1.00;;;;;;4901979;29;20464;-77
2023/04/02 13:45:27;;;;;;;2.60;1.40;;;16.20;1.00;;;;;;4904283;29;20481;-78
2023/04/02 13:47:55;;;;;;;2.70;1.83;;;15.30;1.00;;;;;;4903873;29;20466;-78
2023/04/02 13:50:24;;;;;;;3.90;1.47;;;15.10;1.00;;;;;;4899281;29;20461;-78
2023/04/02 13:52:52;;;;;;;3.87;1.30;;;15.00;1.00;;;;;;4898707;29;21049;-79
2023/04/02 13:55:22;;;;;;;5.40;1.70;;;15.00;1.00;;;;;;4897207;29;20617;-78
2023/04/02 13:57:49;;;;;;;2.90;1.53;;;14.90;1.00;;;;;;4897136;29;20489;-79
2023/04/02 14:00:18;;;;;;;3.70;1.63;;;14.90;1.00;;;;;;4895295;29;20466;-78
2023/04/02 14:02:50;;;;;;;3.67;1.70;;;14.80;1.00;;;;;;4902995;28;21040;-78
2023/04/02 14:05:32;;;;;;;3.23;1.83;;;14.70;1.00;;;;;;4896824;29;20480;-78
2023/04/02 14:08:07;;;;;;;3.03;2.50;;;14.80;1.00;;;;;;4892177;29;20491;-78
2023/04/02 14:10:58;;;;;;;5.00;2.13;;;14.60;1.00;;;;;;4898587;29;20518;-78
2023/04/02 14:13:41;;;;;;;4.30;1.63;;;14.10;1.00;;;;;;4901061;29;20475;-78
2023/04/02 14:16:31;;;;;;;4.70;2.00;;;13.80;1.00;;;;;;4900663;29;20473;-78
2023/04/02 14:19:25;;;;;;;5.43;4.70;;;13.90;1.00;;;;;;4906113;29;20492;-78
2023/04/02 14:22:00;;;;;;;3.33;2.10;;;13.80;1.00;;;;;;4905156;29;20481;-79
2023/04/02 14:24:35;;;;;;;4.47;2.00;;;13.40;1.00;;;;;;4902458;29;21023;-78
2023/04/02 14:27:18;;;;;;;3.53;1.80;;;12.90;1.00;;;;;;4905557;29;20925;-81
2023/04/02 14:29:52;;;;;;;3.63;1.50;;;12.90;1.00;;;;;;4907971;29;20515;-80
2023/04/02 14:32:24;;;;;;;4.50;2.10;;;13.00;1.00;;;;;;4908256;29;20507;-79
2023/04/02 14:35:01;;;;;;;5.20;1.87;;;13.30;1.00;;;;;;4905901;29;20998;-80
2023/04/02 14:37:34;;;;;;;3.13;1.80;;;13.10;1.00;;;;;;4908215;29;20463;-79
2023/04/02 14:40:13;;;;;;;3.40;1.80;;;13.10;1.00;;;;;;4907306;29;20915;-79
2023/04/02 14:42:44;;;;;;;5.07;2.20;;;13.10;1.00;;;;;;4907289;29;20472;-79
2023/04/02 14:45:18;;;;;;;3.10;1.60;;;12.90;1.00;;;;;;4908522;29;21346;-79
2023/04/02 14:47:50;;;;;;;3.17;1.53;;;12.50;1.00;;;;;;4908085;29;20535;-79
2023/04/02 14:50:22;;;;;;;4.10;1.90;;;12.40;1.00;;;;;;4903224;28;20539;-79
2023/04/02 14:52:54;;;;;;;5.30;3.40;;;12.30;1.00;;;;;;4904868;29;20463;-79
2023/04/02 14:55:31;;;;;;;4.83;1.40;;;12.00;1.00;;;;;;4900862;29;20797;-79
2023/04/02 14:58:02;;;;;;;3.20;1.53;;;11.80;1.00;;;;;;4892649;29;20563;-79
2023/04/02 15:00:35;;;;;;;3.83;1.70;;;11.60;1.00;;;;;;4902098;29;20483;-79
2023/04/02 15:03:09;;;;;;;6.57;2.20;;;11.40;1.00;;;;;;4903839;29;20487;-82
2023/04/02 15:05:42;;;;;;;6.03;2.10;;;11.30;1.00;;;;;;4901734;29;20484;-79
2023/04/02 15:08:18;;;;;;;2.70;1.80;;;11.20;1.00;;;;;;4901135;29;21346;-79
2023/04/02 15:10:55;;;;;;;5.00;2.20;;;11.00;1.00;;;;;;4906986;29;21281;-79
2023/04/02 15:13:28;;;;;;;3.27;1.40;;;11.10;1.00;;;;;;4907645;29;20450;-80
2023/04/02 15:15:58;;;;;;;9.20;4.50;;;11.20;1.00;;;;;;4905523;29;20463;-79
2023/04/02 15:18:26;;;;;;;3.60;2.40;;;11.20;1.00;;;;;;4903068;29;20970;-80
2023/04/02 15:21:07;;;;;;;4.80;1.90;;;11.10;1.00;;;;;;4902495;29;20525;-75
2023/04/02 15:23:51;;;;;;;4.63;1.80;;;10.90;1.00;;;;;;4909286;29;20498;-79
2023/04/02 15:26:21;;;;;;;2.90;1.63;;;10.70;1.00;;;;;;4909199;29;20475;-80
2023/04/02 15:28:55;;;;;;;3.90;1.87;;;10.60;1.00;;;;;;4905724;29;20427;-80
2023/04/02 15:31:27;;;;;;;2.23;1.80;;;10.70;1.00;;;;;;4907533;29;20654;-79
2023/04/02 15:34:04;;;;;;;3.70;2.00;;;10.70;1.00;;;;;;4909274;29;21059;-79
2023/04/02 15:36:48;;;;;;;3.70;1.67;;;10.60;1.00;;;;;;4907437;29;20571;-79
2023/04/02 15:39:46;;;;;;;2.53;1.50;;;10.20;1.00;;;;;;4904915;29;20559;-79
2023/04/02 15:42:21;;;;;;;2.60;1.60;;;10.00;1.00;;;;;;4901182;29;20582;-79
2023/04/02 15:45:11;;;;;;;5.73;2.77;;;9.90;1.00;;;;;;4906604;29;20462;-79
2023/04/02 15:47:49;;;;;;;3.60;2.00;;;10.10;1.00;;;;;;4903111;29;20487;-79
2023/04/02 15:50:42;;;;;;;3.10;1.80;;;10.20;1.00;;;;;;4901276;29;20484;-78
2023/04/02 15:53:28;;;;;;;3.70;2.10;;;10.10;1.00;;;;;;4901677;29;20475;-77
2023/04/02 15:56:04;;;;;;;3.10;1.73;;;10.00;1.00;;;;;;4904319;29;20458;-78
2023/04/02 15:58:45;;;;;;;4.83;1.80;;;10.00;1.00;;;;;;4908579;29;21388;-79
2023/04/02 16:01:22;;;;;;;3.07;1.37;;;9.90;1.00;;;;;;4901720;29;20462;-79
2023/04/02 16:04:03;;;;;;;5.63;1.57;;;9.70;1.00;;;;;;4890502;29;21283;-79
2023/04/02 16:06:37;;;;;;;4.70;1.77;;;9.60;1.00;;;;;;4893848;28;21235;-80
2023/04/02 16:09:20;;;;;;;6.03;2.40;;;9.70;1.00;;;;;;4890747;29;20538;-80
2023/04/02 16:11:52;;;;;;;4.37;1.63;;;9.80;1.00;;;;;;4894970;29;20483;-79
2023/04/02 16:14:26;;;;;;;2.70;1.60;;;9.70;1.00;;;;;;4908138;29;20490;-79
2023/04/02 16:16:57;;;;;;;3.33;1.87;;;9.40;1.00;;;;;;4907277;29;20548;-79
2023/04/02 16:19:31;;;;;;;4.40;2.43;;;9.20;1.00;;;;;;4905275;29;20983;-79
2023/04/02 16:22:04;;;;;;;4.47;2.23;;;8.90;1.00;;;;;;4905147;29;20549;-79
2023/04/02 16:24:32;;;;;;;3.27;2.10;;;8.80;1.00;;;;;;4906845;29;20471;-80
2023/04/02 16:27:14;;;;;;;5.93;1.87;;;9.00;1.00;;;;;;4907404;29;20471;-80
2023/04/02 16:29:58;;;;;;;4.00;2.03;;;9.10;1.00;;;;;;4904833;29;20996;-80